sensor_id;sensor_type;location;lat;lon;timestamp;pressure;altitude;pressure_sealevel;temperature;humidity
63700;BME280;49845;47.130;142.766;2023-12-04T00:02:17;100582.25;;;-3.37;98.49
63700;BME280;49845;47.130;142.766;2023-12-04T00:04:48;100572.28;;;-3.31;98.16
63700;BME280;49845;47.130;142.766;2023-12-04T00:07:18;100573.44;;;-3.24;97.97
63700;BME280;49845;47.130;142.766;2023-12-04T00:09:50;100570.59;;;-3.11;98.09
63700;BME280;49845;47.130;142.766;2023-12-04T00:12:21;100562.91;;;-2.91;98.41
63700;BME280;49845;47.130;142.766;2023-12-04T00:14:51;100562.69;;;-2.76;98.25
63700;BME280;49845;47.130;142.766;2023-12-04T00:17:22;100563.13;;;-2.66;97.96
63700;BME280;49845;47.130;142.766;2023-12-04T00:19:52;100555.72;;;-2.59;97.68
63700;BME280;49845;47.130;142.766;2023-12-04T00:22:22;100554.22;;;-2.54;98.03
63700;BME280;49845;47.130;142.766;2023-12-04T00:24:54;100553.78;;;-2.44;97.39
63700;BME280;49845;47.130;142.766;2023-12-04T00:27:25;100548.22;;;-2.34;97.67
63700;BME280;49845;47.130;142.766;2023-12-04T00:29:56;100555.47;;;-2.24;97.08
63700;BME280;49845;47.130;142.766;2023-12-04T00:32:27;100548.81;;;-2.19;97.17
63700;BME280;49845;47.130;142.766;2023-12-04T00:34:58;100544.31;;;-2.03;97.06
63700;BME280;49845;47.130;142.766;2023-12-04T00:37:28;100550.25;;;-1.82;96.91
63700;BME280;49845;47.130;142.766;2023-12-04T00:40:01;100533.69;;;-1.67;96.82
63700;BME280;49845;47.130;142.766;2023-12-04T00:42:31;100534.16;;;-1.55;96.29
63700;BME280;49845;47.130;142.766;2023-12-04T00:45:03;100534.59;;;-1.43;95.94
63700;BME280;49845;47.130;142.766;2023-12-04T00:47:33;100542.03;;;-1.26;95.81
63700;BME280;49845;47.130;142.766;2023-12-04T00:50:04;100545.16;;;-1.11;95.57
63700;BME280;49845;47.130;142.766;2023-12-04T00:52:35;100542.31;;;-0.95;95.09
63700;BME280;49845;47.130;142.766;2023-12-04T00:55:07;100538.06;;;-0.93;94.24
63700;BME280;49845;47.130;142.766;2023-12-04T00:57:38;100529.06;;;-0.81;93.45
63700;BME280;49845;47.130;142.766;2023-12-04T01:00:09;100536.84;;;-0.78;93.57
63700;BME280;49845;47.130;142.766;2023-12-04T01:02:40;100535.31;;;-0.73;92.81
63700;BME280;49845;47.130;142.766;2023-12-04T01:05:11;100525.47;;;-0.61;93.66
63700;BME280;49845;47.130;142.766;2023-12-04T01:07:41;100530.06;;;-0.51;93.52
63700;BME280;49845;47.130;142.766;2023-12-04T01:10:13;100526.06;;;-0.43;93.25
63700;BME280;49845;47.130;142.766;2023-12-04T01:12:44;100510.84;;;-0.36;92.46
63700;BME280;49845;47.130;142.766;2023-12-04T01:15:14;100514.63;;;-0.25;92.64
63700;BME280;49845;47.130;142.766;2023-12-04T01:17:45;100508.13;;;-0.14;92.36
63700;BME280;49845;47.130;142.766;2023-12-04T01:20:15;100507.44;;;-0.08;92.21
63700;BME280;49845;47.130;142.766;2023-12-04T01:22:46;100505.88;;;-0.03;92.13
63700;BME280;49845;47.130;142.766;2023-12-04T01:25:18;100496.47;;;-0.03;92.16
63700;BME280;49845;47.130;142.766;2023-12-04T01:27:48;100495.56;;;0.24;92.46
63700;BME280;49845;47.130;142.766;2023-12-04T01:30:19;100492.78;;;0.47;92.10
63700;BME280;49845;47.130;142.766;2023-12-04T01:32:49;100482.09;;;0.63;91.80
63700;BME280;49845;47.130;142.766;2023-12-04T01:35:20;100474.59;;;0.72;91.27
63700;BME280;49845;47.130;142.766;2023-12-04T01:37:50;100476.50;;;0.79;91.33
63700;BME280;49845;47.130;142.766;2023-12-04T01:40:22;100465.56;;;0.86;90.96
63700;BME280;49845;47.130;142.766;2023-12-04T01:42:53;100462.31;;;0.94;90.87
63700;BME280;49845;47.130;142.766;2023-12-04T01:45:23;100458.16;;;0.99;90.73
63700;BME280;49845;47.130;142.766;2023-12-04T01:47:54;100459.13;;;1.02;90.40
63700;BME280;49845;47.130;142.766;2023-12-04T01:50:25;100453.56;;;1.20;89.90
63700;BME280;49845;47.130;142.766;2023-12-04T01:52:55;100441.06;;;1.36;89.01
63700;BME280;49845;47.130;142.766;2023-12-04T01:55:28;100421.16;;;1.28;88.33
63700;BME280;49845;47.130;142.766;2023-12-04T01:58:00;100426.66;;;1.44;88.06
63700;BME280;49845;47.130;142.766;2023-12-04T02:00:31;100425.91;;;1.48;88.01
63700;BME280;49845;47.130;142.766;2023-12-04T02:03:02;100430.25;;;1.52;87.75
63700;BME280;49845;47.130;142.766;2023-12-04T02:05:33;100425.97;;;1.51;87.15
63700;BME280;49845;47.130;142.766;2023-12-04T02:08:05;100431.72;;;1.41;87.39
63700;BME280;49845;47.130;142.766;2023-12-04T02:10:37;100428.03;;;1.29;87.80
63700;BME280;49845;47.130;142.766;2023-12-04T02:13:08;100422.97;;;1.33;88.02
63700;BME280;49845;47.130;142.766;2023-12-04T02:15:38;100412.72;;;1.36;88.68
63700;BME280;49845;47.130;142.766;2023-12-04T02:18:09;100416.34;;;1.44;88.50
63700;BME280;49845;47.130;142.766;2023-12-04T02:20:39;100416.41;;;1.47;88.24
63700;BME280;49845;47.130;142.766;2023-12-04T02:23:11;100414.75;;;1.49;87.96
63700;BME280;49845;47.130;142.766;2023-12-04T02:25:43;100407.03;;;1.49;87.89
63700;BME280;49845;47.130;142.766;2023-12-04T02:28:14;100392.41;;;1.48;87.59
63700;BME280;49845;47.130;142.766;2023-12-04T02:30:48;100404.06;;;1.70;87.40
63700;BME280;49845;47.130;142.766;2023-12-04T02:33:22;100402.47;;;1.77;86.67
63700;BME280;49845;47.130;142.766;2023-12-04T02:35:54;100400.03;;;1.83;86.52
63700;BME280;49845;47.130;142.766;2023-12-04T02:38:26;100389.84;;;1.89;86.33
63700;BME280;49845;47.130;142.766;2023-12-04T02:40:59;100395.25;;;2.01;85.88
63700;BME280;49845;47.130;142.766;2023-12-04T02:43:30;100389.34;;;2.07;85.42
63700;BME280;49845;47.130;142.766;2023-12-04T02:46:01;100386.88;;;2.11;85.30
63700;BME280;49845;47.130;142.766;2023-12-04T02:48:32;100375.81;;;2.17;84.97
63700;BME280;49845;47.130;142.766;2023-12-04T02:51:04;100368.13;;;2.19;84.17
63700;BME280;49845;47.130;142.766;2023-12-04T02:53:35;100369.91;;;2.23;84.35
63700;BME280;49845;47.130;142.766;2023-12-04T02:56:08;100371.69;;;2.27;84.12
63700;BME280;49845;47.130;142.766;2023-12-04T02:58:38;100361.38;;;2.27;83.97
63700;BME280;49845;47.130;142.766;2023-12-04T03:01:09;100361.34;;;2.24;84.22
63700;BME280;49845;47.130;142.766;2023-12-04T03:03:39;100355.31;;;2.23;84.46
63700;BME280;49845;47.130;142.766;2023-12-04T03:06:10;100354.38;;;2.20;84.70
63700;BME280;49845;47.130;142.766;2023-12-04T03:08:40;100344.91;;;2.19;84.55
63700;BME280;49845;47.130;142.766;2023-12-04T03:11:12;100346.63;;;2.18;84.70
63700;BME280;49845;47.130;142.766;2023-12-04T03:13:43;100338.84;;;2.16;84.90
63700;BME280;49845;47.130;142.766;2023-12-04T03:16:16;100342.28;;;2.15;85.06
63700;BME280;49845;47.130;142.766;2023-12-04T03:18:47;100318.00;;;2.04;85.07
63700;BME280;49845;47.130;142.766;2023-12-04T03:21:18;100327.53;;;2.08;85.18
63700;BME280;49845;47.130;142.766;2023-12-04T03:24:01;100323.22;;;2.07;85.74
63700;BME280;49845;47.130;142.766;2023-12-04T03:26:33;100312.84;;;2.04;85.57
63700;BME280;49845;47.130;142.766;2023-12-04T03:29:04;100270.25;;;1.78;85.74
63700;BME280;49845;47.130;142.766;2023-12-04T03:31:34;100305.97;;;2.03;85.79
63700;BME280;49845;47.130;142.766;2023-12-04T03:34:04;100305.97;;;2.03;85.82
63700;BME280;49845;47.130;142.766;2023-12-04T03:36:35;100307.78;;;2.07;86.18
63700;BME280;49845;47.130;142.766;2023-12-04T03:39:06;100303.56;;;2.14;85.42
63700;BME280;49845;47.130;142.766;2023-12-04T03:41:38;100290.78;;;2.19;85.28
63700;BME280;49845;47.130;142.766;2023-12-04T03:44:08;100282.09;;;2.13;85.10
63700;BME280;49845;47.130;142.766;2023-12-04T03:46:39;100295.97;;;2.22;85.32
63700;BME280;49845;47.130;142.766;2023-12-04T03:49:09;100290.78;;;2.19;85.05
63700;BME280;49845;47.130;142.766;2023-12-04T03:51:39;100290.72;;;2.17;85.32
63700;BME280;49845;47.130;142.766;2023-12-04T03:54:10;100283.81;;;2.14;85.49
63700;BME280;49845;47.130;142.766;2023-12-04T03:56:43;100276.25;;;2.22;84.99
63700;BME280;49845;47.130;142.766;2023-12-04T03:59:14;100278.00;;;2.26;85.01
63700;BME280;49845;47.130;142.766;2023-12-04T04:01:44;100279.81;;;2.30;85.02
63700;BME280;49845;47.130;142.766;2023-12-04T04:04:15;100275.47;;;2.28;85.11
63700;BME280;49845;47.130;142.766;2023-12-04T04:06:45;100275.34;;;2.22;85.16
63700;BME280;49845;47.130;142.766;2023-12-04T04:09:15;100270.19;;;2.22;85.21
63700;BME280;49845;47.130;142.766;2023-12-04T04:11:49;100261.63;;;2.23;85.73
63700;BME280;49845;47.130;142.766;2023-12-04T04:14:20;100254.00;;;2.27;85.39
63700;BME280;49845;47.130;142.766;2023-12-04T04:16:51;100254.13;;;2.35;85.23
63700;BME280;49845;47.130;142.766;2023-12-04T04:19:22;100248.16;;;2.39;84.68
63700;BME280;49845;47.130;142.766;2023-12-04T04:21:52;100248.22;;;2.42;84.70
63700;BME280;49845;47.130;142.766;2023-12-04T04:24:22;100240.53;;;2.45;84.43
63700;BME280;49845;47.130;142.766;2023-12-04T04:26:54;100233.56;;;2.41;84.08
63700;BME280;49845;47.130;142.766;2023-12-04T04:29:24;100237.00;;;2.40;84.70
63700;BME280;49845;47.130;142.766;2023-12-04T04:31:55;100233.56;;;2.41;85.00
63700;BME280;49845;47.130;142.766;2023-12-04T04:34:25;100226.66;;;2.38;84.88
63700;BME280;49845;47.130;142.766;2023-12-04T04:36:55;100237.75;;;2.33;85.76
63700;BME280;49845;47.130;142.766;2023-12-04T04:39:26;100237.56;;;2.24;86.26
63700;BME280;49845;47.130;142.766;2023-12-04T04:41:58;100229.75;;;2.19;86.45
63700;BME280;49845;47.130;142.766;2023-12-04T04:44:28;100218.59;;;2.19;87.00
63700;BME280;49845;47.130;142.766;2023-12-04T04:46:59;100233.28;;;2.23;87.07
63700;BME280;49845;47.130;142.766;2023-12-04T04:49:30;100221.28;;;2.25;87.32
63700;BME280;49845;47.130;142.766;2023-12-04T04:52:01;100224.72;;;2.27;86.99
63700;BME280;49845;47.130;142.766;2023-12-04T04:54:31;100178.78;;;2.01;86.98
63700;BME280;49845;47.130;142.766;2023-12-04T04:57:04;100225.59;;;2.26;87.03
63700;BME280;49845;47.130;142.766;2023-12-04T04:59:34;100223.88;;;2.25;87.13
63700;BME280;49845;47.130;142.766;2023-12-04T05:02:04;100222.16;;;2.27;87.60
63700;BME280;49845;47.130;142.766;2023-12-04T05:04:35;100240.13;;;2.21;88.06
63700;BME280;49845;47.130;142.766;2023-12-04T05:07:06;100228.84;;;2.15;88.30
63700;BME280;49845;47.130;142.766;2023-12-04T05:09:36;100234.88;;;2.16;88.44
63700;BME280;49845;47.130;142.766;2023-12-04T05:12:08;100242.69;;;2.21;88.60
63700;BME280;49845;47.130;142.766;2023-12-04T05:14:39;100234.00;;;2.15;88.42
63700;BME280;49845;47.130;142.766;2023-12-04T05:17:09;100232.38;;;2.21;88.35
63700;BME280;49845;47.130;142.766;2023-12-04T05:19:40;100239.22;;;2.19;88.74
63700;BME280;49845;47.130;142.766;2023-12-04T05:22:10;100237.50;;;2.18;88.50
63700;BME280;49845;47.130;142.766;2023-12-04T05:24:41;100234.06;;;2.19;88.88
63700;BME280;49845;47.130;142.766;2023-12-04T05:27:13;100234.91;;;2.19;88.90
63700;BME280;49845;47.130;142.766;2023-12-04T05:29:43;100246.22;;;2.26;89.04
63700;BME280;49845;47.130;142.766;2023-12-04T05:32:15;100237.56;;;2.24;88.87
63700;BME280;49845;47.130;142.766;2023-12-04T05:34:45;100237.53;;;2.21;89.04
63700;BME280;49845;47.130;142.766;2023-12-04T05:37:16;100230.63;;;2.20;89.10
63700;BME280;49845;47.130;142.766;2023-12-04T05:39:46;100234.06;;;2.19;89.44
63700;BME280;49845;47.130;142.766;2023-12-04T05:42:18;100243.50;;;2.18;89.45
63700;BME280;49845;47.130;142.766;2023-12-04T05:44:48;100234.91;;;2.18;89.84
63700;BME280;49845;47.130;142.766;2023-12-04T05:47:21;100241.78;;;2.19;89.53
63700;BME280;49845;47.130;142.766;2023-12-04T05:49:52;100235.78;;;2.20;89.99
63700;BME280;49845;47.130;142.766;2023-12-04T05:52:23;100239.22;;;2.19;89.95
63700;BME280;49845;47.130;142.766;2023-12-04T05:54:53;100214.25;;;2.16;90.02
63700;BME280;49845;47.130;142.766;2023-12-04T05:57:25;100233.97;;;2.14;90.64
63700;BME280;49845;47.130;142.766;2023-12-04T05:59:56;100235.66;;;2.10;90.62
63700;BME280;49845;47.130;142.766;2023-12-04T06:02:26;100228.72;;;2.09;90.99
63700;BME280;49845;47.130;142.766;2023-12-04T06:04:59;100241.63;;;2.09;90.88
63700;BME280;49845;47.130;142.766;2023-12-04T06:07:29;100243.38;;;2.10;91.26
63700;BME280;49845;47.130;142.766;2023-12-04T06:10:00;100230.44;;;2.09;91.38
63700;BME280;49845;47.130;142.766;2023-12-04T06:12:32;100232.13;;;2.05;91.25
63700;BME280;49845;47.130;142.766;2023-12-04T06:15:04;100212.97;;;1.91;91.54
63700;BME280;49845;47.130;142.766;2023-12-04T06:17:34;100225.97;;;1.99;92.01
63700;BME280;49845;47.130;142.766;2023-12-04T06:20:06;100223.38;;;1.97;92.34
63700;BME280;49845;47.130;142.766;2023-12-04T06:22:37;100178.13;;;1.64;92.56
63700;BME280;49845;47.130;142.766;2023-12-04T06:25:09;100214.69;;;1.92;92.59
63700;BME280;49845;47.130;142.766;2023-12-04T06:27:42;100212.91;;;1.88;93.16
63700;BME280;49845;47.130;142.766;2023-12-04T06:30:13;100214.63;;;1.89;93.40
63700;BME280;49845;47.130;142.766;2023-12-04T06:32:44;100206.91;;;1.89;93.71
63700;BME280;49845;47.130;142.766;2023-12-04T06:35:15;100199.13;;;1.86;94.53
63700;BME280;49845;47.130;142.766;2023-12-04T06:37:49;100178.28;;;1.73;94.44
63700;BME280;49845;47.130;142.766;2023-12-04T06:40:21;100203.34;;;1.81;94.79
63700;BME280;49845;47.130;142.766;2023-12-04T06:42:54;100197.28;;;1.79;95.31
63700;BME280;49845;47.130;142.766;2023-12-04T06:45:25;100200.75;;;1.81;95.57
63700;BME280;49845;47.130;142.766;2023-12-04T06:47:56;100202.53;;;1.83;95.40
63700;BME280;49845;47.130;142.766;2023-12-04T06:50:26;100200.75;;;1.81;95.79
63700;BME280;49845;47.130;142.766;2023-12-04T06:52:57;100211.13;;;1.84;95.75
63700;BME280;49845;47.130;142.766;2023-12-04T06:55:27;100203.44;;;1.87;95.75
63700;BME280;49845;47.130;142.766;2023-12-04T06:57:59;100202.47;;;1.82;95.69
63700;BME280;49845;47.130;142.766;2023-12-04T07:00:30;100206.84;;;1.86;95.88
63700;BME280;49845;47.130;142.766;2023-12-04T07:03:01;100214.59;;;1.86;96.25
63700;BME280;49845;47.130;142.766;2023-12-04T07:05:31;100211.97;;;1.84;96.36
63700;BME280;49845;47.130;142.766;2023-12-04T07:08:01;100205.91;;;1.81;97.07
63700;BME280;49845;47.130;142.766;2023-12-04T07:10:32;100216.19;;;1.79;97.04
63700;BME280;49845;47.130;142.766;2023-12-04T07:13:04;100198.09;;;1.76;97.97
63700;BME280;49845;47.130;142.766;2023-12-04T07:15:34;100214.41;;;1.77;98.00
63700;BME280;49845;47.130;142.766;2023-12-04T07:18:05;100217.84;;;1.76;98.03
63700;BME280;49845;47.130;142.766;2023-12-04T07:20:35;100217.84;;;1.76;98.18
63700;BME280;49845;47.130;142.766;2023-12-04T07:23:06;100223.00;;;1.76;98.71
63700;BME280;49845;47.130;142.766;2023-12-04T07:25:36;100217.88;;;1.79;98.56
63700;BME280;49845;47.130;142.766;2023-12-04T07:28:08;100207.63;;;1.82;98.56
63700;BME280;49845;47.130;142.766;2023-12-04T07:30:39;100212.88;;;1.85;99.00
63700;BME280;49845;47.130;142.766;2023-12-04T07:33:09;100226.63;;;1.87;98.56
63700;BME280;49845;47.130;142.766;2023-12-04T07:35:40;100221.53;;;1.90;98.78
63700;BME280;49845;47.130;142.766;2023-12-04T07:38:10;100218.13;;;1.91;98.46
63700;BME280;49845;47.130;142.766;2023-12-04T07:40:40;100218.13;;;1.91;98.70
63700;BME280;49845;47.130;142.766;2023-12-04T07:43:12;100204.28;;;1.86;99.00
63700;BME280;49845;47.130;142.766;2023-12-04T07:45:44;100221.53;;;1.90;99.14
63700;BME280;49845;47.130;142.766;2023-12-04T07:48:14;100214.69;;;1.92;99.13
63700;BME280;49845;47.130;142.766;2023-12-04T07:50:45;100210.44;;;1.94;99.41
63700;BME280;49845;47.130;142.766;2023-12-04T07:53:15;100207.84;;;1.94;99.29
63700;BME280;49845;47.130;142.766;2023-12-04T07:55:46;100213.00;;;1.94;99.11
63700;BME280;49845;47.130;142.766;2023-12-04T07:58:18;100212.16;;;1.93;99.61
63700;BME280;49845;47.130;142.766;2023-12-04T08:00:48;100206.09;;;1.90;99.74
63700;BME280;49845;47.130;142.766;2023-12-04T08:03:19;100181.66;;;1.69;99.78
63700;BME280;49845;47.130;142.766;2023-12-04T08:05:49;100214.75;;;1.95;100.00
63700;BME280;49845;47.130;142.766;2023-12-04T08:08:20;100200.88;;;1.88;100.00
63700;BME280;49845;47.130;142.766;2023-12-04T08:10:50;100207.81;;;1.91;100.00
63700;BME280;49845;47.130;142.766;2023-12-04T08:13:23;100219.06;;;1.96;100.00
63700;BME280;49845;47.130;142.766;2023-12-04T08:15:53;100214.75;;;1.95;100.00
63700;BME280;49845;47.130;142.766;2023-12-04T08:18:24;100225.06;;;1.95;100.00
63700;BME280;49845;47.130;142.766;2023-12-04T08:20:54;100213.00;;;1.94;100.00
63700;BME280;49845;47.130;142.766;2023-12-04T08:23:25;100219.97;;;1.98;100.00
63700;BME280;49845;47.130;142.766;2023-12-04T08:25:55;100217.47;;;2.03;100.00
63700;BME280;49845;47.130;142.766;2023-12-04T08:28:29;100213.22;;;2.06;100.00
63700;BME280;49845;47.130;142.766;2023-12-04T08:30:59;100195.22;;;2.08;99.95
63700;BME280;49845;47.130;142.766;2023-12-04T08:33:30;100195.22;;;2.09;99.39
63700;BME280;49845;47.130;142.766;2023-12-04T08:36:00;100199.56;;;2.10;98.90
63700;BME280;49845;47.130;142.766;2023-12-04T08:38:31;100196.16;;;2.14;98.46
63700;BME280;49845;47.130;142.766;2023-12-04T08:41:02;100199.69;;;2.20;98.14
63700;BME280;49845;47.130;142.766;2023-12-04T08:43:33;100203.16;;;2.22;97.89
63700;BME280;49845;47.130;142.766;2023-12-04T08:46:04;100191.19;;;2.24;97.54
63700;BME280;49845;47.130;142.766;2023-12-04T08:48:35;100203.28;;;2.28;97.46
63700;BME280;49845;47.130;142.766;2023-12-04T08:51:06;100208.44;;;2.28;97.27
63700;BME280;49845;47.130;142.766;2023-12-04T08:53:37;100207.53;;;2.26;97.33
63700;BME280;49845;47.130;142.766;2023-12-04T08:56:08;100207.50;;;2.23;97.08
63700;BME280;49845;47.130;142.766;2023-12-04T08:58:47;100195.44;;;2.20;97.21
63700;BME280;49845;47.130;142.766;2023-12-04T09:01:18;100197.94;;;2.15;96.92
63700;BME280;49845;47.130;142.766;2023-12-04T09:03:49;100199.59;;;2.13;97.36
63700;BME280;49845;47.130;142.766;2023-12-04T09:06:19;100199.56;;;2.10;97.36
63700;BME280;49845;47.130;142.766;2023-12-04T09:09:10;100199.59;;;2.13;96.77
63700;BME280;49845;47.130;142.766;2023-12-04T09:11:44;100204.75;;;2.13;96.49
63700;BME280;49845;47.130;142.766;2023-12-04T09:14:17;100194.50;;;2.16;95.72
63700;BME280;49845;47.130;142.766;2023-12-04T09:16:48;100198.81;;;2.19;94.81
63700;BME280;49845;47.130;142.766;2023-12-04T09:19:18;100208.31;;;2.22;94.29
63700;BME280;49845;47.130;142.766;2023-12-04T09:21:49;100204.97;;;2.26;93.60
63700;BME280;49845;47.130;142.766;2023-12-04T09:24:34;100187.66;;;2.19;93.32
63700;BME280;49845;47.130;142.766;2023-12-04T09:27:05;100211.91;;;2.30;93.09
63700;BME280;49845;47.130;142.766;2023-12-04T09:29:37;100208.53;;;2.34;92.57
63700;BME280;49845;47.130;142.766;2023-12-04T09:32:08;100206.84;;;2.36;92.67
63700;BME280;49845;47.130;142.766;2023-12-04T09:34:38;100206.84;;;2.36;92.37
63700;BME280;49845;47.130;142.766;2023-12-04T09:37:08;100209.47;;;2.37;92.22
63700;BME280;49845;47.130;142.766;2023-12-04T09:39:41;100209.47;;;2.39;92.30
63700;BME280;49845;47.130;142.766;2023-12-04T09:42:12;100206.03;;;2.38;92.29
63700;BME280;49845;47.130;142.766;2023-12-04T09:44:46;100212.03;;;2.39;92.82
63700;BME280;49845;47.130;142.766;2023-12-04T09:47:18;100218.88;;;2.37;92.31
63700;BME280;49845;47.130;142.766;2023-12-04T09:49:52;100161.72;;;2.09;92.39
63700;BME280;49845;47.130;142.766;2023-12-04T09:52:23;100210.31;;;2.38;92.68
63700;BME280;49845;47.130;142.766;2023-12-04T09:54:53;100175.75;;;2.27;92.94
63700;BME280;49845;47.130;142.766;2023-12-04T09:57:24;100201.72;;;2.39;92.38
63700;BME280;49845;47.130;142.766;2023-12-04T09:59:58;100203.47;;;2.40;92.52
63700;BME280;49845;47.130;142.766;2023-12-04T10:02:30;100206.88;;;2.39;92.77
63700;BME280;49845;47.130;142.766;2023-12-04T10:05:03;100194.81;;;2.35;92.84
63700;BME280;49845;47.130;142.766;2023-12-04T10:07:34;100199.97;;;2.35;93.03
63700;BME280;49845;47.130;142.766;2023-12-04T10:10:06;100193.09;;;2.37;92.85
63700;BME280;49845;47.130;142.766;2023-12-04T10:12:37;100159.28;;;2.19;92.45
63700;BME280;49845;47.130;142.766;2023-12-04T10:15:11;100183.56;;;2.31;92.91
63700;BME280;49845;47.130;142.766;2023-12-04T10:17:42;100188.81;;;2.37;92.90
63700;BME280;49845;47.130;142.766;2023-12-04T10:20:15;100177.63;;;2.37;92.29
63700;BME280;49845;47.130;142.766;2023-12-04T10:22:54;100130.88;;;2.12;92.29
63700;BME280;49845;47.130;142.766;2023-12-04T10:25:26;100187.13;;;2.40;92.11
63700;BME280;49845;47.130;142.766;2023-12-04T10:28:08;100189.78;;;2.44;92.22
63700;BME280;49845;47.130;142.766;2023-12-04T10:30:40;100189.78;;;2.44;92.37
63700;BME280;49845;47.130;142.766;2023-12-04T10:33:11;100185.47;;;2.43;92.18
63700;BME280;49845;47.130;142.766;2023-12-04T10:35:42;100184.63;;;2.44;91.96
63700;BME280;49845;47.130;142.766;2023-12-04T10:38:13;100182.94;;;2.45;91.92
63700;BME280;49845;47.130;142.766;2023-12-04T10:40:44;100165.59;;;2.36;91.98
63700;BME280;49845;47.130;142.766;2023-12-04T10:43:18;100155.22;;;2.33;91.93
63700;BME280;49845;47.130;142.766;2023-12-04T10:45:51;100170.78;;;2.39;92.75
63700;BME280;49845;47.130;142.766;2023-12-04T10:48:23;100170.75;;;2.36;92.89
63700;BME280;49845;47.130;142.766;2023-12-04T10:50:53;100179.25;;;2.32;93.34
63700;BME280;49845;47.130;142.766;2023-12-04T10:53:26;100157.66;;;2.24;93.86
63700;BME280;49845;47.130;142.766;2023-12-04T10:55:59;100179.06;;;2.20;93.69
63700;BME280;49845;47.130;142.766;2023-12-04T10:58:34;100175.72;;;2.24;93.96
63700;BME280;49845;47.130;142.766;2023-12-04T11:01:07;100177.47;;;2.25;94.07
63700;BME280;49845;47.130;142.766;2023-12-04T11:03:44;100159.13;;;2.08;94.31
63700;BME280;49845;47.130;142.766;2023-12-04T11:06:17;100190.41;;;2.28;94.59
63700;BME280;49845;47.130;142.766;2023-12-04T11:08:48;100167.16;;;2.25;95.09
63700;BME280;49845;47.130;142.766;2023-12-04T11:11:26;100179.19;;;2.26;95.57
63700;BME280;49845;47.130;142.766;2023-12-04T11:14:00;100175.72;;;2.24;95.65
63700;BME280;49845;47.130;142.766;2023-12-04T11:16:37;100175.63;;;2.19;96.79
63700;BME280;49845;47.130;142.766;2023-12-04T11:19:14;100170.41;;;2.14;97.45
63700;BME280;49845;47.130;142.766;2023-12-04T11:21:48;100151.41;;;2.08;97.91
63700;BME280;49845;47.130;142.766;2023-12-04T11:24:20;100147.97;;;2.07;97.66
63700;BME280;49845;47.130;142.766;2023-12-04T11:26:51;100143.59;;;2.03;97.83
63700;BME280;49845;47.130;142.766;2023-12-04T11:29:23;100149.66;;;2.05;98.00
63700;BME280;49845;47.130;142.766;2023-12-04T11:31:56;100135.91;;;2.06;97.83
63700;BME280;49845;47.130;142.766;2023-12-04T11:34:26;100136.75;;;2.07;97.58
63700;BME280;49845;47.130;142.766;2023-12-04T11:36:58;100138.47;;;2.06;97.19
63700;BME280;49845;47.130;142.766;2023-12-04T11:39:28;100135.09;;;2.09;97.20
63700;BME280;49845;47.130;142.766;2023-12-04T11:41:59;100135.13;;;2.12;96.24
63700;BME280;49845;47.130;142.766;2023-12-04T11:44:29;100135.13;;;2.12;96.13
63700;BME280;49845;47.130;142.766;2023-12-04T11:47:05;100142.03;;;2.14;95.93
63700;BME280;49845;47.130;142.766;2023-12-04T11:49:36;100134.31;;;2.14;95.79
63700;BME280;49845;47.130;142.766;2023-12-04T11:52:07;100144.72;;;2.21;94.92
63700;BME280;49845;47.130;142.766;2023-12-04T11:54:57;100127.59;;;2.23;94.66
63700;BME280;49845;47.130;142.766;2023-12-04T11:57:32;100129.31;;;2.24;94.87
63700;BME280;49845;47.130;142.766;2023-12-04T12:00:12;100119.84;;;2.23;95.63
63700;BME280;49845;47.130;142.766;2023-12-04T12:02:47;100129.34;;;2.27;95.57
63700;BME280;49845;47.130;142.766;2023-12-04T12:05:38;100134.53;;;2.28;95.46
63700;BME280;49845;47.130;142.766;2023-12-04T12:08:10;100136.22;;;2.25;95.63
63700;BME280;49845;47.130;142.766;2023-12-04T12:10:41;100149.13;;;2.28;95.53
63700;BME280;49845;47.130;142.766;2023-12-04T12:13:12;100139.72;;;2.30;95.26
63700;BME280;49845;47.130;142.766;2023-12-04T12:15:43;100131.06;;;2.25;95.67
63700;BME280;49845;47.130;142.766;2023-12-04T12:18:18;100126.78;;;2.28;95.89
63700;BME280;49845;47.130;142.766;2023-12-04T12:20:48;100095.78;;;2.24;95.79
63700;BME280;49845;47.130;142.766;2023-12-04T12:23:19;100108.00;;;2.35;95.69
63700;BME280;49845;47.130;142.766;2023-12-04T12:25:51;100105.47;;;2.38;95.41
63700;BME280;49845;47.130;142.766;2023-12-04T12:28:22;100096.84;;;2.38;95.82
63700;BME280;49845;47.130;142.766;2023-12-04T12:30:52;100016.25;;;1.89;96.00
63700;BME280;49845;47.130;142.766;2023-12-04T12:33:24;100095.06;;;2.34;96.23
63700;BME280;49845;47.130;142.766;2023-12-04T12:35:55;100088.22;;;2.36;96.00
63700;BME280;49845;47.130;142.766;2023-12-04T12:38:31;100068.50;;;2.38;95.69
63700;BME280;49845;47.130;142.766;2023-12-04T12:41:06;100076.22;;;2.38;95.35
63700;BME280;49845;47.130;142.766;2023-12-04T12:43:40;100071.03;;;2.35;95.20
63700;BME280;49845;47.130;142.766;2023-12-04T12:46:10;100075.38;;;2.39;94.96
63700;BME280;49845;47.130;142.766;2023-12-04T12:48:44;100078.03;;;2.42;95.21
63700;BME280;49845;47.130;142.766;2023-12-04T12:51:15;100074.53;;;2.40;95.17
63700;BME280;49845;47.130;142.766;2023-12-04T12:53:45;100072.78;;;2.39;95.39
63700;BME280;49845;47.130;142.766;2023-12-04T12:56:19;100077.94;;;2.39;95.09
63700;BME280;49845;47.130;142.766;2023-12-04T12:58:50;100064.22;;;2.40;95.77
63700;BME280;49845;47.130;142.766;2023-12-04T13:01:23;100076.22;;;2.38;95.86